createdAt,value
2018-06-16T00:00:48.353Z,9.70
2018-06-16T00:01:48.358Z,9.10
2018-06-16T00:02:48.358Z,9.40
2018-06-16T00:03:48.362Z,9.30
2018-06-16T00:04:48.366Z,8.50
2018-06-16T00:05:48.367Z,9.30
2018-06-16T00:06:48.370Z,9.50
2018-06-16T00:07:48.373Z,9.70
2018-06-16T00:08:48.377Z,9.20
2018-06-16T00:09:48.380Z,9.00
2018-06-16T00:10:48.383Z,9.70
2018-06-16T00:11:48.386Z,9.90
2018-06-16T00:12:48.389Z,9.10
2018-06-16T00:13:48.392Z,9.50
2018-06-16T00:14:48.396Z,8.90
2018-06-16T00:15:48.398Z,9.70
2018-06-16T00:16:48.401Z,9.00
2018-06-16T00:17:48.404Z,9.40
2018-06-16T00:18:48.406Z,9.80
2018-06-16T00:19:48.409Z,9.40
2018-06-16T00:20:48.413Z,9.30
2018-06-16T00:21:48.416Z,9.80
2018-06-16T00:22:48.418Z,8.90
2018-06-16T00:23:48.420Z,9.30
2018-06-16T00:24:48.426Z,8.80
2018-06-16T00:25:48.432Z,8.00
2018-06-16T00:26:48.430Z,8.50
2018-06-16T00:27:48.433Z,8.80
2018-06-16T00:28:48.436Z,7.10
2018-06-16T00:29:48.438Z,9.70
2018-06-16T00:30:48.440Z,8.90
2018-06-16T00:31:48.445Z,7.20
2018-06-16T00:32:48.447Z,8.90
2018-06-16T00:33:48.449Z,8.30
2018-06-16T00:34:48.453Z,8.80
2018-06-16T00:35:48.457Z,8.80
2018-06-16T00:36:48.460Z,8.50
2018-06-16T00:37:48.462Z,8.20
2018-06-16T00:38:48.465Z,8.30
2018-06-16T00:39:48.468Z,7.60
2018-06-16T00:40:48.473Z,7.70
2018-06-16T00:41:48.473Z,8.40
2018-06-16T00:42:48.477Z,8.00
2018-06-16T00:43:48.482Z,7.60
2018-06-16T00:44:48.483Z,7.60
2018-06-16T00:45:48.485Z,8.30
2018-06-16T00:46:48.488Z,7.80
2018-06-16T00:47:48.492Z,7.10
2018-06-16T00:48:48.500Z,7.60
2018-06-16T00:49:48.498Z,7.90
2018-06-16T00:50:48.501Z,7.10
2018-06-16T00:51:48.504Z,7.50
2018-06-16T00:52:48.546Z,7.80
2018-06-16T00:53:48.510Z,7.10
2018-06-16T00:54:48.513Z,7.30
2018-06-16T00:55:48.516Z,6.50
2018-06-16T00:56:48.520Z,7.20
2018-06-16T00:57:48.525Z,7.20
2018-06-16T00:58:48.525Z,6.50
2018-06-16T00:59:48.528Z,7.30
2018-06-16T01:00:48.533Z,7.50
2018-06-16T01:01:48.534Z,7.50
2018-06-16T01:02:48.537Z,6.60
2018-06-16T01:03:48.541Z,7.00
2018-06-16T01:04:48.543Z,6.70
2018-06-16T01:05:48.546Z,6.20
2018-06-16T01:06:48.549Z,6.40
2018-06-16T01:07:48.552Z,6.40
2018-06-16T01:08:48.556Z,6.50
2018-06-16T01:09:48.557Z,6.50
2018-06-16T01:10:48.561Z,6.20
2018-06-16T01:11:48.565Z,7.30
2018-06-16T01:12:48.568Z,6.60
2018-06-16T01:13:48.571Z,5.60
2018-06-16T01:14:48.573Z,6.50
2018-06-16T01:15:48.581Z,5.80
2018-06-16T01:16:48.581Z,6.50
2018-06-16T01:17:48.583Z,6.40
2018-06-16T01:18:48.586Z,6.40
2018-06-16T01:19:48.589Z,6.10
2018-06-16T01:20:48.594Z,6.00
2018-06-16T01:21:48.595Z,6.20
2018-06-16T01:22:48.597Z,6.30
2018-06-16T01:23:48.601Z,6.90
2018-06-16T01:24:48.605Z,5.60
2018-06-16T01:25:48.608Z,6.00
2018-06-16T01:26:48.609Z,5.70
2018-06-16T01:27:48.613Z,5.30
2018-06-16T01:28:48.616Z,5.20
2018-06-16T01:29:48.618Z,4.80
2018-06-16T01:30:48.622Z,5.30
2018-06-16T01:31:48.625Z,4.90
2018-06-16T01:32:48.628Z,5.50
2018-06-16T01:33:48.632Z,4.50
2018-06-16T01:34:48.633Z,5.40
2018-06-16T01:35:48.635Z,5.70
2018-06-16T01:36:48.640Z,5.70
2018-06-16T01:37:48.641Z,5.20
2018-06-16T01:38:48.647Z,5.10
2018-06-16T01:39:48.648Z,5.60
2018-06-16T01:40:48.651Z,4.90
2018-06-16T01:41:48.654Z,5.40
2018-06-16T01:42:48.656Z,5.30
2018-06-16T01:43:48.660Z,4.70
2018-06-16T01:44:48.663Z,4.80
2018-06-16T01:45:48.670Z,5.60
2018-06-16T01:46:48.668Z,4.40
2018-06-16T01:47:48.671Z,5.20
2018-06-16T01:48:48.675Z,4.80
2018-06-16T01:49:48.677Z,4.90
2018-06-16T01:50:48.680Z,5.20
2018-06-16T01:51:48.683Z,4.90
2018-06-16T01:52:48.687Z,4.60
2018-06-16T01:53:48.690Z,5.10
2018-06-16T01:54:48.691Z,4.70
2018-06-16T01:55:48.694Z,4.90
2018-06-16T01:56:48.698Z,4.50
2018-06-16T01:57:48.699Z,5.10
2018-06-16T01:58:48.702Z,4.90
2018-06-16T01:59:48.706Z,4.90
2018-06-16T02:00:48.709Z,5.70
2018-06-16T02:01:48.711Z,5.10
2018-06-16T02:02:48.719Z,5.20
2018-06-16T02:03:48.717Z,4.60
2018-06-16T02:04:48.722Z,4.50
2018-06-16T02:05:48.721Z,5.30
2018-06-16T02:06:48.725Z,5.70
2018-06-16T02:07:48.727Z,4.00
2018-06-16T02:08:48.731Z,4.30
2018-06-16T02:09:48.732Z,4.80
2018-06-16T02:10:48.735Z,5.20
2018-06-16T02:11:48.738Z,4.00
2018-06-16T02:12:48.741Z,4.60
2018-06-16T02:13:48.745Z,3.90
2018-06-16T02:14:48.748Z,4.90
2018-06-16T02:15:48.749Z,4.10
2018-06-16T02:16:48.752Z,4.70
2018-06-16T02:17:48.753Z,4.30
2018-06-16T02:18:48.759Z,4.30
2018-06-16T02:19:48.759Z,4.60
2018-06-16T02:20:48.768Z,4.40
2018-06-16T02:21:48.763Z,4.30
2018-06-16T02:22:48.771Z,4.40
2018-06-16T02:23:48.769Z,5.60
2018-06-16T02:24:48.772Z,4.80
2018-06-16T02:25:48.775Z,5.00
2018-06-16T02:26:48.776Z,4.60
2018-06-16T02:27:48.781Z,5.10
2018-06-16T02:28:48.788Z,4.90
2018-06-16T02:29:48.783Z,4.50
2018-06-16T02:30:48.794Z,4.40
2018-06-16T02:31:48.789Z,4.60
2018-06-16T02:32:48.791Z,4.50
2018-06-16T02:33:48.797Z,4.30
2018-06-16T02:34:48.796Z,4.50
2018-06-16T02:35:48.799Z,5.10
2018-06-16T02:36:48.801Z,4.30
2018-06-16T02:37:48.802Z,3.90
2018-06-16T02:38:48.804Z,4.60
2018-06-16T02:39:48.807Z,4.60
2018-06-16T02:40:48.809Z,4.00
2018-06-16T02:41:48.811Z,4.10
2018-06-16T02:42:48.813Z,3.80
2018-06-16T02:43:48.816Z,4.90
2018-06-16T02:44:48.820Z,4.40
2018-06-16T02:45:48.820Z,4.50
2018-06-16T02:46:48.822Z,4.10
2018-06-16T02:47:48.825Z,4.90
2018-06-16T02:48:48.836Z,4.30
2018-06-16T02:49:48.829Z,4.20
2018-06-16T02:50:48.830Z,4.70
2018-06-16T02:51:48.834Z,4.60
2018-06-16T02:52:48.836Z,4.40
2018-06-16T02:53:48.841Z,3.40
2018-06-16T02:54:48.840Z,3.80
2018-06-16T02:55:48.843Z,3.90
2018-06-16T02:56:48.844Z,4.20
2018-06-16T02:57:48.848Z,4.90
2018-06-16T02:58:48.848Z,4.00
2018-06-16T02:59:48.851Z,5.20
2018-06-16T03:00:48.852Z,4.50
2018-06-16T03:01:48.854Z,4.50
2018-06-16T03:02:48.856Z,4.10
2018-06-16T03:03:48.858Z,3.90
2018-06-16T03:04:48.862Z,4.00
2018-06-16T03:05:48.862Z,3.70
2018-06-16T03:06:48.865Z,3.80
2018-06-16T03:07:48.866Z,4.60
2018-06-16T03:08:48.869Z,5.10
2018-06-16T03:09:48.870Z,4.40
2018-06-16T03:10:48.873Z,3.30
2018-06-16T03:11:48.874Z,3.90
2018-06-16T03:12:48.877Z,4.40
2018-06-16T03:13:48.879Z,4.00
2018-06-16T03:14:48.880Z,4.10
2018-06-16T03:15:48.882Z,3.90
2018-06-16T03:16:48.885Z,3.50
2018-06-16T03:17:48.885Z,4.10
2018-06-16T03:18:48.888Z,3.90
2018-06-16T03:19:48.890Z,4.80
2018-06-16T03:20:48.892Z,3.60
2018-06-16T03:21:48.893Z,4.10
2018-06-16T03:22:48.895Z,4.00
2018-06-16T03:23:48.898Z,4.00
2018-06-16T03:24:48.899Z,3.60
2018-06-16T03:25:48.937Z,3.50
2018-06-16T03:26:48.903Z,4.40
2018-06-16T03:27:48.905Z,4.20
2018-06-16T03:28:48.906Z,4.00
2018-06-16T03:29:48.908Z,3.90
2018-06-16T03:30:48.911Z,3.50
2018-06-16T03:31:48.913Z,3.40
2018-06-16T03:32:48.914Z,3.90
2018-06-16T03:33:48.915Z,3.90
2018-06-16T03:34:48.918Z,3.90
2018-06-16T03:35:48.919Z,3.20
2018-06-16T03:36:48.922Z,3.50
2018-06-16T03:37:48.923Z,4.30
2018-06-16T03:38:48.925Z,4.50
2018-06-16T03:39:48.927Z,4.30
2018-06-16T03:40:48.931Z,3.70
2018-06-16T03:41:48.930Z,3.60
2018-06-16T03:42:48.932Z,3.70
2018-06-16T03:43:48.934Z,4.50
2018-06-16T03:44:48.936Z,4.00
2018-06-16T03:45:48.938Z,3.80
2018-06-16T03:46:48.939Z,4.10
2018-06-16T03:47:48.941Z,3.60
2018-06-16T03:48:48.944Z,3.70
2018-06-16T03:49:48.945Z,3.40
2018-06-16T03:50:48.947Z,3.70
2018-06-16T03:51:48.952Z,3.60
2018-06-16T03:52:48.951Z,4.00
2018-06-16T03:53:48.952Z,3.70
2018-06-16T03:54:48.954Z,4.20
2018-06-16T03:55:48.960Z,4.00
2018-06-16T03:56:48.960Z,3.60
2018-06-16T03:57:48.959Z,4.60
2018-06-16T03:58:48.961Z,4.90
2018-06-16T03:59:48.964Z,3.90
2018-06-16T04:00:48.967Z,4.10
2018-06-16T04:01:48.970Z,5.00
2018-06-16T04:02:48.971Z,4.70
2018-06-16T04:03:48.971Z,4.50
2018-06-16T04:04:48.974Z,3.90
2018-06-16T04:05:48.975Z,4.70
2018-06-16T04:06:48.980Z,5.00
2018-06-16T04:07:48.978Z,3.90
2018-06-16T04:08:48.982Z,4.10
2018-06-16T04:09:48.982Z,4.60
2018-06-16T04:10:48.985Z,4.90
2018-06-16T04:11:48.986Z,4.50
2018-06-16T04:12:48.989Z,4.50
2018-06-16T04:13:48.990Z,4.50
2018-06-16T04:14:48.992Z,4.30
2018-06-16T04:15:48.994Z,3.90
2018-06-16T04:16:48.997Z,4.00
2018-06-16T04:17:48.998Z,3.70
2018-06-16T04:18:49.001Z,4.00
2018-06-16T04:19:49.003Z,3.90
2018-06-16T04:20:49.005Z,4.00
2018-06-16T04:21:49.006Z,4.60
2018-06-16T04:22:49.009Z,4.40
2018-06-16T04:23:49.011Z,3.40
2018-06-16T04:24:49.013Z,4.10
2018-06-16T04:25:49.013Z,4.10
2018-06-16T04:26:49.017Z,3.50
2018-06-16T04:27:49.022Z,4.50
2018-06-16T04:28:49.021Z,4.80
2018-06-16T04:29:49.022Z,3.70
2018-06-16T04:30:49.025Z,4.00
2018-06-16T04:31:49.039Z,3.90
2018-06-16T04:32:49.029Z,3.70
2018-06-16T04:33:49.040Z,5.20
2018-06-16T04:34:49.073Z,4.70
2018-06-16T04:35:49.037Z,3.90
2018-06-16T04:36:49.047Z,4.80
2018-06-16T04:37:49.040Z,4.10
2018-06-16T04:38:49.041Z,4.80
2018-06-16T04:39:49.044Z,5.10
2018-06-16T04:40:49.047Z,4.40
2018-06-16T04:41:49.047Z,4.50
2018-06-16T04:42:49.050Z,4.10
2018-06-16T04:43:49.056Z,4.70
2018-06-16T04:44:49.054Z,3.70
2018-06-16T04:45:49.137Z,4.10
2018-06-16T04:46:49.060Z,3.90
2018-06-16T04:47:49.063Z,4.60
2018-06-16T04:48:49.064Z,4.40
2018-06-16T04:49:49.067Z,4.10
2018-06-16T04:50:49.069Z,4.30
2018-06-16T04:51:49.072Z,4.30
2018-06-16T04:52:49.075Z,4.60
2018-06-16T04:53:49.077Z,4.20
2018-06-16T04:54:49.080Z,5.40
2018-06-16T04:55:49.083Z,3.90
2018-06-16T04:56:49.086Z,4.30
2018-06-16T04:57:49.086Z,3.90
2018-06-16T04:58:49.090Z,4.10
2018-06-16T04:59:49.093Z,4.10
2018-06-16T05:00:49.096Z,4.40
2018-06-16T05:01:49.098Z,5.10
2018-06-16T05:02:49.102Z,4.30
2018-06-16T05:03:49.104Z,4.80
2018-06-16T05:04:49.107Z,4.90
2018-06-16T05:05:49.110Z,4.20
2018-06-16T05:06:49.111Z,4.90
2018-06-16T05:07:49.119Z,4.20
2018-06-16T05:08:49.119Z,4.90
2018-06-16T05:09:49.122Z,4.40
2018-06-16T05:10:49.125Z,4.00
2018-06-16T05:11:49.128Z,4.90
2018-06-16T05:12:49.133Z,4.80
2018-06-16T05:13:49.134Z,4.80
2018-06-16T05:14:49.138Z,4.70
2018-06-16T05:15:49.141Z,4.60
2018-06-16T05:16:49.145Z,5.30
2018-06-16T05:17:49.148Z,4.70
2018-06-16T05:18:49.150Z,5.20
2018-06-16T05:19:49.155Z,4.80
2018-06-16T05:20:49.159Z,4.20
2018-06-16T05:21:49.223Z,4.10
2018-06-16T05:22:49.166Z,5.20
2018-06-16T05:23:49.169Z,5.20
2018-06-16T05:24:49.175Z,5.30
2018-06-16T05:25:49.241Z,6.30
2018-06-16T05:26:49.181Z,5.20
2018-06-16T05:27:49.185Z,6.10
2018-06-16T05:28:49.195Z,5.60
2018-06-16T05:29:49.192Z,6.00
2018-06-16T05:30:49.197Z,5.50
2018-06-16T05:31:49.203Z,5.10
2018-06-16T05:32:49.205Z,4.90
2018-06-16T05:33:49.210Z,5.50
2018-06-16T05:34:49.214Z,6.00
2018-06-16T05:35:49.219Z,5.50
2018-06-16T05:36:49.223Z,5.50
2018-06-16T05:37:49.226Z,5.60
2018-06-16T05:38:49.231Z,6.00
2018-06-16T05:39:49.236Z,5.40
2018-06-16T05:40:49.241Z,6.00
2018-06-16T05:41:49.244Z,6.00
2018-06-16T05:42:49.247Z,6.00
2018-06-16T05:43:49.256Z,5.70
2018-06-16T05:44:49.258Z,6.10
2018-06-16T05:45:49.262Z,6.70
2018-06-16T05:46:49.268Z,5.30
2018-06-16T05:47:49.274Z,6.30
2018-06-16T05:48:49.278Z,6.30
2018-06-16T05:49:49.281Z,5.30
2018-06-16T05:50:49.288Z,5.70
2018-06-16T05:51:49.292Z,5.70
2018-06-16T05:52:49.297Z,6.00
2018-06-16T05:53:49.300Z,5.80
2018-06-16T05:54:49.305Z,5.70
2018-06-16T05:55:49.310Z,5.70
2018-06-16T05:56:49.315Z,6.20
2018-06-16T05:57:49.321Z,5.20
2018-06-16T05:58:49.324Z,5.20
2018-06-16T05:59:49.330Z,5.20
2018-06-16T06:00:49.335Z,5.40
2018-06-16T06:01:49.339Z,5.70
2018-06-16T06:02:49.345Z,5.90
2018-06-16T06:03:49.349Z,5.30
2018-06-16T06:04:49.355Z,5.80
2018-06-16T06:05:49.359Z,5.20
2018-06-16T06:06:49.364Z,5.10
2018-06-16T06:07:49.369Z,5.40
2018-06-16T06:08:49.372Z,5.90
2018-06-16T06:09:49.378Z,5.60
2018-06-16T06:10:49.384Z,5.20
2018-06-16T06:11:49.393Z,5.70
2018-06-16T06:12:49.395Z,5.90
2018-06-16T06:13:49.398Z,5.40
2018-06-16T06:14:49.402Z,5.30
2018-06-16T06:15:49.416Z,5.40
2018-06-16T06:16:49.416Z,5.10
2018-06-16T06:17:49.419Z,4.10
2018-06-16T06:18:49.424Z,5.30
2018-06-16T06:19:49.430Z,4.90
2018-06-16T06:20:49.435Z,5.60
2018-06-16T06:21:49.441Z,6.00
2018-06-16T06:22:49.446Z,5.90
2018-06-16T06:23:49.451Z,5.60
2018-06-16T06:24:49.456Z,5.30
2018-06-16T06:25:49.464Z,5.20
2018-06-16T06:26:49.466Z,5.50
2018-06-16T06:27:49.471Z,4.80
2018-06-16T06:28:49.478Z,5.50
2018-06-16T06:29:49.484Z,5.10
2018-06-16T06:30:49.487Z,5.30
2018-06-16T06:31:49.494Z,5.40
2018-06-16T06:32:49.500Z,5.30
2018-06-16T06:33:49.503Z,4.60
2018-06-16T06:34:49.508Z,5.40
2018-06-16T06:35:49.515Z,5.20
2018-06-16T06:36:49.522Z,5.30
2018-06-16T06:37:49.526Z,4.50
2018-06-16T06:38:49.535Z,5.70
2018-06-16T06:39:49.538Z,5.70
2018-06-16T06:40:49.544Z,5.70
2018-06-16T06:41:49.549Z,5.50
2018-06-16T06:42:49.555Z,5.10
2018-06-16T06:43:49.561Z,5.50
2018-06-16T06:44:49.568Z,6.60
2018-06-16T06:45:49.571Z,6.10
2018-06-16T06:46:49.578Z,5.60
2018-06-16T06:47:49.584Z,6.10
2018-06-16T06:48:49.589Z,6.60
2018-06-16T06:49:49.594Z,5.90
2018-06-16T06:50:49.604Z,6.60
2018-06-16T06:51:49.607Z,6.40
2018-06-16T06:52:49.612Z,5.70
2018-06-16T06:53:49.617Z,6.30
2018-06-16T06:54:49.623Z,5.60
2018-06-16T06:55:49.630Z,7.10
2018-06-16T06:56:49.637Z,6.20
2018-06-16T06:57:49.669Z,6.20
2018-06-16T06:58:49.647Z,6.50
2018-06-16T06:59:49.655Z,6.00
2018-06-16T07:00:49.660Z,6.00
2018-06-16T07:01:49.665Z,6.00
2018-06-16T07:02:49.672Z,6.50
2018-06-16T07:03:49.678Z,5.70
2018-06-16T07:04:49.686Z,5.50
2018-06-16T07:05:49.691Z,5.60
2018-06-16T07:06:49.697Z,5.60
2018-06-16T07:07:49.703Z,6.30
2018-06-16T07:08:49.710Z,5.70
2018-06-16T07:09:49.716Z,5.60
2018-06-16T07:10:49.765Z,5.10
2018-06-16T07:11:49.731Z,6.10
2018-06-16T07:12:49.736Z,6.10
2018-06-16T07:13:49.742Z,5.90
2018-06-16T07:14:49.747Z,5.70
2018-06-16T07:15:49.757Z,5.50
2018-06-16T07:16:49.765Z,5.30
2018-06-16T07:17:49.769Z,6.00
2018-06-16T07:18:49.778Z,5.80
2018-06-16T07:19:49.784Z,5.90
2018-06-16T07:20:49.790Z,5.90
2018-06-16T07:21:49.798Z,6.80
2018-06-16T07:22:49.805Z,6.10
2018-06-16T07:23:49.810Z,7.00
2018-06-16T07:24:49.819Z,5.70
2018-06-16T07:25:49.825Z,6.20
2018-06-16T07:26:49.833Z,6.70
2018-06-16T07:27:49.839Z,6.40
2018-06-16T07:28:49.846Z,6.80
2018-06-16T07:29:49.853Z,5.90
2018-06-16T07:30:49.860Z,6.20
2018-06-16T07:31:49.868Z,6.30
2018-06-16T07:32:49.876Z,6.40
2018-06-16T07:33:49.882Z,6.30
2018-06-16T07:34:49.890Z,6.00
2018-06-16T07:35:49.897Z,6.20
2018-06-16T07:36:49.905Z,5.90
2018-06-16T07:37:49.913Z,7.40
2018-06-16T07:38:49.926Z,6.00
2018-06-16T07:39:49.928Z,6.40
2018-06-16T07:40:49.936Z,6.40
2018-06-16T07:41:49.942Z,7.50
2018-06-16T07:42:49.951Z,6.90
2018-06-16T07:43:49.959Z,6.10
2018-06-16T07:44:49.969Z,6.50
2018-06-16T07:45:49.976Z,6.30
2018-06-16T07:46:49.984Z,6.60
2018-06-16T07:47:49.993Z,6.50
2018-06-16T07:48:50.028Z,6.90
2018-06-16T07:49:50.009Z,6.80
2018-06-16T07:50:50.018Z,6.20
2018-06-16T07:51:50.027Z,7.10
2018-06-16T07:52:50.036Z,6.50
2018-06-16T07:53:50.044Z,7.70
2018-06-16T07:54:50.053Z,7.50
2018-06-16T07:55:50.061Z,7.20
2018-06-16T07:56:50.122Z,6.90
2018-06-16T07:57:50.080Z,7.70
2018-06-16T07:58:50.086Z,6.90
2018-06-16T07:59:50.095Z,7.30
2018-06-16T08:00:50.104Z,7.00
2018-06-16T08:01:50.112Z,7.40
2018-06-16T08:02:50.144Z,7.00
2018-06-16T08:03:50.129Z,7.80
2018-06-16T08:04:50.139Z,7.10
2018-06-16T08:05:50.145Z,7.80
2018-06-16T08:06:50.156Z,7.20
2018-06-16T08:07:50.164Z,8.70
2018-06-16T08:08:50.175Z,7.60
2018-06-16T08:09:50.180Z,7.60
2018-06-16T08:10:50.190Z,7.30
2018-06-16T08:11:50.199Z,7.40
2018-06-16T08:12:50.262Z,6.90
2018-06-16T08:13:50.216Z,7.70
2018-06-16T08:14:50.225Z,7.50
2018-06-16T08:15:50.235Z,7.30
2018-06-16T08:16:50.244Z,7.70
2018-06-16T08:17:50.250Z,8.00
2018-06-16T08:18:50.259Z,7.30
2018-06-16T08:19:50.268Z,8.50
2018-06-16T08:20:50.277Z,7.50
2018-06-16T08:21:50.285Z,7.20
2018-06-16T08:22:50.300Z,8.40
2018-06-16T08:23:50.304Z,7.60
2018-06-16T08:24:50.312Z,6.80
2018-06-16T08:25:50.322Z,7.40
2018-06-16T08:26:50.330Z,7.40
2018-06-16T08:27:50.339Z,7.70
2018-06-16T08:28:50.351Z,8.80
2018-06-16T08:29:50.355Z,7.90
2018-06-16T08:30:50.364Z,7.60
2018-06-16T08:31:50.374Z,7.00
2018-06-16T08:32:50.382Z,7.90
2018-06-16T08:33:50.395Z,7.80
2018-06-16T08:34:50.434Z,8.50
2018-06-16T08:35:50.411Z,8.60
2018-06-16T08:36:50.421Z,8.40
2018-06-16T08:37:50.430Z,7.20
2018-06-16T08:38:50.440Z,7.70
2018-06-16T08:39:50.450Z,7.80
2018-06-16T08:40:50.461Z,7.00
2018-06-16T08:41:50.469Z,7.20
2018-06-16T08:42:50.481Z,7.60
2018-06-16T08:43:50.491Z,7.30
2018-06-16T08:44:50.500Z,7.70
2018-06-16T08:45:50.511Z,7.80
2018-06-16T08:46:50.521Z,7.60
2018-06-16T08:47:50.532Z,8.00
2018-06-16T08:48:50.543Z,7.40
2018-06-16T08:49:50.553Z,7.90
2018-06-16T08:50:50.565Z,7.70
2018-06-16T08:51:50.574Z,7.80
2018-06-16T08:52:50.585Z,8.40
2018-06-16T08:53:50.595Z,8.30
2018-06-16T08:54:50.605Z,7.80
2018-06-16T08:55:50.618Z,7.60
2018-06-16T08:56:50.628Z,7.50
2018-06-16T08:57:50.637Z,7.70
2018-06-16T08:58:50.648Z,7.60
2018-06-16T08:59:50.659Z,7.80
2018-06-16T09:00:50.673Z,7.70
2018-06-16T09:01:50.680Z,6.50
2018-06-16T09:02:50.692Z,7.70
2018-06-16T09:03:50.703Z,7.60
2018-06-16T09:04:50.715Z,7.90
2018-06-16T09:05:50.725Z,8.00
2018-06-16T09:06:50.742Z,8.30
2018-06-16T09:07:50.749Z,8.90
2018-06-16T09:08:50.762Z,9.60
2018-06-16T09:09:50.771Z,9.50
2018-06-16T09:10:50.789Z,9.00
2018-06-16T09:11:50.794Z,8.60
2018-06-16T09:12:50.805Z,8.20
2018-06-16T09:13:50.817Z,8.30
2018-06-16T09:14:50.828Z,7.90
2018-06-16T09:15:50.839Z,7.90
2018-06-16T09:16:50.850Z,8.50
2018-06-16T09:17:50.864Z,7.90
2018-06-16T09:18:50.874Z,8.50
2018-06-16T09:19:50.884Z,8.20
2018-06-16T09:20:50.896Z,7.40
2018-06-16T09:21:50.905Z,7.90
2018-06-16T09:22:50.920Z,8.60
2018-06-16T09:23:50.930Z,8.10
2018-06-16T09:24:50.942Z,7.20
2018-06-16T09:25:50.953Z,7.60
2018-06-16T09:26:50.965Z,8.50
2018-06-16T09:27:50.982Z,7.30
2018-06-16T09:28:50.988Z,7.50
2018-06-16T09:29:50.999Z,8.30
2018-06-16T09:30:51.011Z,7.50
2018-06-16T09:31:51.028Z,6.80
2018-06-16T09:32:51.033Z,7.70
2018-06-16T09:33:51.043Z,8.10
2018-06-16T09:34:51.054Z,8.30
2018-06-16T09:35:51.067Z,11.60
2018-06-16T09:36:51.083Z,8.10
2018-06-16T09:37:51.096Z,7.40
2018-06-16T09:38:51.107Z,7.20
2018-06-16T09:39:51.115Z,7.20
2018-06-16T09:40:51.128Z,6.90
2018-06-16T09:41:51.138Z,7.60
2018-06-16T09:42:51.150Z,6.30
2018-06-16T09:43:51.166Z,6.90
2018-06-16T09:44:51.178Z,7.40
2018-06-16T09:45:51.185Z,6.30
2018-06-16T09:46:51.198Z,6.70
2018-06-16T09:47:51.210Z,6.50
2018-06-16T09:48:51.225Z,7.00
2018-06-16T09:49:51.233Z,6.90
2018-06-16T09:50:51.247Z,7.50
2018-06-16T09:51:51.259Z,7.40
2018-06-16T09:52:51.272Z,7.10
2018-06-16T09:53:51.282Z,7.40
2018-06-16T09:54:51.295Z,6.80
2018-06-16T09:55:51.308Z,7.00
2018-06-16T09:56:51.320Z,7.30
2018-06-16T09:57:51.331Z,6.70
2018-06-16T09:58:51.345Z,7.40
2018-06-16T09:59:51.356Z,7.00
2018-06-16T10:00:51.368Z,6.50
2018-06-16T10:01:51.384Z,5.10
2018-06-16T10:02:51.393Z,6.10
2018-06-16T10:03:51.404Z,6.60
2018-06-16T10:04:51.416Z,6.00
2018-06-16T10:05:51.429Z,6.00
2018-06-16T10:06:51.441Z,6.60
2018-06-16T10:07:51.454Z,8.60
2018-06-16T10:08:51.466Z,6.20
2018-06-16T10:09:51.477Z,5.80
2018-06-16T10:10:51.490Z,5.70
2018-06-16T10:11:51.502Z,6.80
2018-06-16T10:12:51.515Z,6.60
2018-06-16T10:13:51.526Z,6.40
2018-06-16T10:14:51.539Z,6.30
2018-06-16T10:15:51.590Z,6.30
2018-06-16T10:16:51.564Z,4.90
2018-06-16T10:17:51.574Z,5.20
2018-06-16T10:18:51.588Z,5.30
2018-06-16T10:19:51.599Z,5.30
2018-06-16T10:20:51.611Z,5.20
2018-06-16T10:21:51.623Z,5.60
2018-06-16T10:22:51.635Z,5.70
2018-06-16T10:23:51.648Z,5.60
2018-06-16T10:24:51.659Z,5.40
2018-06-16T10:25:51.671Z,4.90
2018-06-16T10:26:51.684Z,6.00
2018-06-16T10:27:51.697Z,4.80
2018-06-16T10:28:51.709Z,4.40
2018-06-16T10:29:51.720Z,4.70
2018-06-16T10:30:51.732Z,5.40
2018-06-16T10:31:51.744Z,4.60
2018-06-16T10:32:51.756Z,5.30
2018-06-16T10:33:51.767Z,4.40
2018-06-16T10:34:51.779Z,5.70
2018-06-16T10:35:51.793Z,6.80
2018-06-16T10:36:51.805Z,6.50
2018-06-16T10:37:51.814Z,6.00
2018-06-16T10:38:51.827Z,5.60
2018-06-16T10:39:51.839Z,5.50
2018-06-16T10:40:51.851Z,5.50
2018-06-16T10:41:51.864Z,4.70
2018-06-16T10:42:51.873Z,4.70
2018-06-16T10:43:51.885Z,4.80
2018-06-16T10:44:51.897Z,4.50
2018-06-16T10:45:51.906Z,4.60
2018-06-16T10:46:51.919Z,4.30
2018-06-16T10:47:51.932Z,4.50
2018-06-16T10:48:51.943Z,4.00
2018-06-16T10:49:51.953Z,4.70
2018-06-16T10:50:51.965Z,3.90
2018-06-16T10:51:51.977Z,4.80
2018-06-16T10:52:51.989Z,4.10
2018-06-16T10:53:52.000Z,5.10
2018-06-16T10:54:52.011Z,5.30
2018-06-16T10:55:52.023Z,4.20
2018-06-16T10:56:52.033Z,3.90
2018-06-16T10:57:52.045Z,4.10
2018-06-16T10:58:52.058Z,5.10
2018-06-16T10:59:52.066Z,4.20
2018-06-16T11:00:52.078Z,4.20
2018-06-16T11:01:52.091Z,4.10
2018-06-16T11:02:52.100Z,3.70
2018-06-16T11:03:52.111Z,3.60
2018-06-16T11:04:52.123Z,3.40
2018-06-16T11:05:52.137Z,3.10
2018-06-16T11:06:52.146Z,2.70
2018-06-16T11:07:52.156Z,2.90
2018-06-16T11:08:52.168Z,3.20
2018-06-16T11:09:52.177Z,2.80
2018-06-16T11:10:52.190Z,2.80
2018-06-16T11:11:52.200Z,2.80
2018-06-16T11:12:52.211Z,2.90
2018-06-16T11:13:52.222Z,3.30
2018-06-16T11:14:52.232Z,3.00
2018-06-16T11:15:52.244Z,2.70
2018-06-16T11:16:52.256Z,2.70
2018-06-16T11:17:52.265Z,2.50
2018-06-16T11:18:52.275Z,2.40
2018-06-16T11:19:52.288Z,2.80
2018-06-16T11:20:52.298Z,2.30
2018-06-16T11:21:52.308Z,3.30
2018-06-16T11:22:52.319Z,2.20
2018-06-16T11:23:52.330Z,3.60
2018-06-16T11:24:52.342Z,2.70
2018-06-16T11:25:52.395Z,2.20
2018-06-16T11:26:52.362Z,2.10
2018-06-16T11:27:52.372Z,2.90
2018-06-16T11:28:52.383Z,2.40
2018-06-16T11:29:52.391Z,2.60
2018-06-16T11:30:52.403Z,3.30
2018-06-16T11:31:52.417Z,2.20
2018-06-16T11:32:52.425Z,2.60
2018-06-16T11:33:52.434Z,2.10
2018-06-16T11:34:52.445Z,2.30
2018-06-16T11:35:52.457Z,3.40
2018-06-16T11:36:52.468Z,2.20
2018-06-16T11:37:52.477Z,2.30
2018-06-16T11:38:52.488Z,2.40
2018-06-16T11:39:52.500Z,2.80
2018-06-16T11:40:52.537Z,2.20
2018-06-16T11:41:52.518Z,2.50
2018-06-16T11:42:52.529Z,1.80
2018-06-16T11:43:52.539Z,2.10
2018-06-16T11:44:52.551Z,2.20
2018-06-16T11:45:52.560Z,2.20
2018-06-16T11:46:52.570Z,2.10
2018-06-16T11:47:52.582Z,2.00
2018-06-16T11:48:52.597Z,2.10
2018-06-16T11:49:52.601Z,2.00
2018-06-16T11:50:52.613Z,2.00
2018-06-16T11:51:52.623Z,2.40
2018-06-16T11:52:52.633Z,1.70
2018-06-16T11:53:52.643Z,1.80
2018-06-16T11:54:52.652Z,2.00
2018-06-16T11:55:52.662Z,2.60
2018-06-16T11:56:52.673Z,2.20
2018-06-16T11:57:52.683Z,2.40
2018-06-16T11:58:52.692Z,3.40
2018-06-16T11:59:52.702Z,2.90
2018-06-16T12:00:52.711Z,2.10
2018-06-16T12:01:52.781Z,2.30
2018-06-16T12:02:52.735Z,2.20
2018-06-16T12:03:52.743Z,2.00
2018-06-16T12:04:52.751Z,2.30
2018-06-16T12:05:52.760Z,2.00
2018-06-16T12:06:52.772Z,2.20
2018-06-16T12:07:52.780Z,2.20
2018-06-16T12:08:52.790Z,2.40
2018-06-16T12:09:52.801Z,2.90
2018-06-16T12:10:52.810Z,2.50
2018-06-16T12:11:52.821Z,2.20
2018-06-16T12:12:52.832Z,2.20
2018-06-16T12:13:52.840Z,3.10
2018-06-16T12:14:52.849Z,2.10
2018-06-16T12:15:52.861Z,2.50
2018-06-16T12:16:52.870Z,1.80
2018-06-16T12:17:52.878Z,2.30
2018-06-16T12:18:52.888Z,1.80
2018-06-16T12:19:52.901Z,2.10
2018-06-16T12:20:52.909Z,2.10
2018-06-16T12:21:52.916Z,2.10
2018-06-16T12:22:52.927Z,1.70
2018-06-16T12:23:52.936Z,1.90
2018-06-16T12:24:52.946Z,1.90
2018-06-16T12:25:52.956Z,1.80
2018-06-16T12:26:52.965Z,1.90
2018-06-16T12:27:52.975Z,1.90
2018-06-16T12:28:52.991Z,2.80
2018-06-16T12:29:52.993Z,1.20
2018-06-16T12:30:53.003Z,2.10
2018-06-16T12:31:53.013Z,2.00
2018-06-16T12:32:53.023Z,1.50
2018-06-16T12:33:53.031Z,1.90
2018-06-16T12:34:53.042Z,1.60
2018-06-16T12:35:53.059Z,1.70
2018-06-16T12:36:53.062Z,2.50
2018-06-16T12:37:53.070Z,1.90
2018-06-16T12:38:53.082Z,1.70
2018-06-16T12:39:53.091Z,2.00
2018-06-16T12:40:53.100Z,1.90
2018-06-16T12:41:53.108Z,1.40
2018-06-16T12:42:53.118Z,1.50
2018-06-16T12:43:53.127Z,2.00
2018-06-16T12:44:53.137Z,2.30
2018-06-16T12:45:53.145Z,1.70
2018-06-16T12:46:53.155Z,1.70
2018-06-16T12:47:53.164Z,1.50
2018-06-16T12:48:53.176Z,1.60
2018-06-16T12:49:53.183Z,1.60
2018-06-16T12:50:53.195Z,1.50
2018-06-16T12:51:53.202Z,1.70
2018-06-16T12:52:53.211Z,1.50
2018-06-16T12:53:53.220Z,1.80
2018-06-16T12:54:53.230Z,1.70
2018-06-16T12:55:53.239Z,1.80
2018-06-16T12:56:53.275Z,1.20
2018-06-16T12:57:53.325Z,1.40
2018-06-16T12:58:53.267Z,1.20
2018-06-16T12:59:53.276Z,1.70
2018-06-16T13:00:53.285Z,1.60
2018-06-16T13:01:53.294Z,1.40
2018-06-16T13:02:53.303Z,1.40
2018-06-16T13:03:53.312Z,1.40
2018-06-16T13:04:53.322Z,2.50
2018-06-16T13:05:53.331Z,2.00
2018-06-16T13:06:53.340Z,1.30
2018-06-16T13:07:53.352Z,1.60
2018-06-16T13:08:53.360Z,1.60
2018-06-16T13:09:53.369Z,1.70
2018-06-16T13:10:53.379Z,2.00
2018-06-16T13:11:53.388Z,1.70
2018-06-16T13:12:53.398Z,1.60
2018-06-16T13:13:53.408Z,1.90
2018-06-16T13:14:53.416Z,2.10
2018-06-16T13:15:53.428Z,2.00
2018-06-16T13:16:53.436Z,1.80
2018-06-16T13:17:53.444Z,1.50
2018-06-16T13:18:53.458Z,1.70